ADDS METAR Data INFO
IDs: Format: Raw Decoded Include TAF

Data at: 2032 UTC 16 Dec 2017

KLCI 162017Z AUTO 26008KT 3SM -SN SCT012 BKN019 OVC036 M03/M07 A2987 RMK AO2 P0000 FZRANO
KLCI 162006Z AUTO 29007KT 2SM -SN FEW015 BKN028 OVC038 M03/M07 A2987 RMK AO2 P0000 FZRANO
KLCI 161956Z AUTO 29006KT 4SM -SN FEW027 OVC040 M03/M08 A2987 RMK AO2 SNB19 SLP132 P0000 T10281083 FZRANO
KLCI 161856Z AUTO 33006KT 9SM FEW038 OVC046 M02/M09 A2983 RMK AO2 SNB34E54 SLP121 P0000 T10171094 FZRANO
KLCI 161756Z AUTO 27010G14KT 10SM OVC038 M02/M09 A2982 RMK AO2 SLP119 T10171094 11011 21128 56009 FZRANO
KLCI 161656Z AUTO 24012KT 10SM BKN032 OVC080 M02/M09 A2983 RMK AO2 SLP120 T10171089 FZRANO
KLCI 161556Z AUTO 22011KT 10SM FEW048 M03/M09 A2984 RMK AO2 SLP124 T10281089 FZRANO
KLCI 161456Z AUTO 23005KT 10SM SCT048 M06/M08 A2985 RMK AO2 SLP127 T10561083 51012 FZRANO
KLCI 161356Z AUTO 00000KT 10SM OVC046 M09/M12 A2985 RMK AO2 SLP126 T10941117 FZRANO
KLCI 161256Z AUTO 00000KT 10SM CLR M12/M13 A2983 RMK AO2 SLP120 T11171128 FZRANO
KLCI 161156Z AUTO 24005KT 10SM CLR M13/M14 A2981 RMK AO2 SLP115 T11281144 11094 21128 53018 FZRANO
KLCI 161056Z AUTO 24004KT 10SM CLR M12/M14 A2980 RMK AO2 SLP109 T11221139 FZRANO
KLCI 160956Z AUTO 24005KT 10SM CLR M11/M13 A2978 RMK AO2 SLP103 T11111128 FZRANO
KLCI 160856Z AUTO 25006KT 10SM BKN110 M11/M12 A2976 RMK AO2 SLP098 T11061122 55000 FZRANO
KLCI 160656Z AUTO 26005KT 10SM SCT095 BKN120 M09/M12 A2976 RMK AO2 SLP095 T10941117 FZRANO
KLCI 160556Z AUTO 00000KT 10SM SCT075 M10/M13 A2976 RMK AO2 SLP098 60000 T11001128 11067 21100 58016 FZRANO
KLCI 160356Z AUTO 00000KT 10SM SCT034 BKN065 OVC090 M08/M13 A2980 RMK AO2 SNE32 SLP111 P0000 T10781128 410501172 FZRANO
KLCI 160256Z AUTO 00000KT 9SM -SN FEW029 OVC060 M07/M12 A2981 RMK AO2 SNB34 SLP113 P0000 60000 T10721122 58008 FZRANO
KLCI 160156Z AUTO 00000KT 10SM OVC060 M07/M12 A2982 RMK AO2 SLP117 T10721122 FZRANO
KLCI 160056Z AUTO 25003KT 10SM OVC070 M08/M12 A2983 RMK AO2 SLP120 T10781122 FZRANO
KLCI 152356Z AUTO 00000KT 10SM OVC085 M08/M13 A2983 RMK AO2 SLP123 T10781128 11050 21078 58027 FZRANO
KLCI 152256Z AUTO 00000KT 10SM OVC100 M08/M14 A2986 RMK AO2 SLP132 T10781139 FZRANO
KLCI 152156Z AUTO 00000KT 10SM OVC110 M07/M14 A2989 RMK AO2 SLP141 T10671139 FZRANO
KLCI 152056Z AUTO 22005KT 10SM BKN120 M06/M14 A2991 RMK AO2 SLP149 T10611139 56014 FZRANO
KLCI 151956Z AUTO 21005KT 10SM BKN120 M06/M14 A2993 RMK AO2 SLP154 T10561139 FZRANO
KLCI 151856Z AUTO 24006KT 10SM CLR M06/M14 A2993 RMK AO2 SLP155 T10561139 FZRANO
KLCI 151756Z AUTO 22005KT 10SM CLR M06/M14 A2996 RMK AO2 SLP163 T10561139 11056 21172 56026 FZRANO
KLCI 151656Z AUTO 23008KT 10SM CLR M06/M14 A2998 RMK AO2 SLP173 T10611139 FZRANO
KLCI 151556Z AUTO 22008KT 10SM CLR M07/M14 A3001 RMK AO2 SLP182 T10721139 FZRANO
KLCI 151456Z AUTO 21006KT 10SM CLR M09/M12 A3004 RMK AO2 SLP190 T10891122 51013 FZRANO
KLCI 151356Z AUTO 00000KT 10SM CLR M09/M13 A3002 RMK AO2 SLP186 T10891128 FZRANO
KLCI 151256Z AUTO 25003KT 10SM CLR M16/M18 A3001 RMK AO2 SLP181 T11611178 FZRANO
KLCI 151156Z AUTO 32003KT 10SM CLR M17/M19 A3000 RMK AO2 SLP177 T11721189 11128 21172 51008 FZRANO
KLCI 151056Z AUTO VRB03KT 10SM CLR M16/M18 A2999 RMK AO2 SLP177 T11611183 FZRANO
KLCI 150956Z AUTO 25004KT 10SM CLR M16/M18 A2998 RMK AO2 SLP174 T11561178 FZRANO
KLCI 150856Z AUTO 28004KT 10SM CLR M14/M18 A2997 RMK AO2 SLP169 T11441178 50010 FZRANO